createdAt,value
2022-11-28T00:01:29.571Z,3.15
2022-11-28T00:03:57.682Z,3.16
2022-11-28T00:06:27.464Z,3.16
2022-11-28T00:08:58.249Z,3.17
2022-11-28T00:11:26.719Z,3.16
2022-11-28T00:13:54.778Z,3.16
2022-11-28T00:16:23.648Z,3.16
2022-11-28T00:18:54.195Z,3.13
2022-11-28T00:21:22.288Z,3.13
2022-11-28T00:23:50.835Z,3.13
2022-11-28T00:26:29.411Z,3.11
2022-11-28T00:28:59.077Z,3.11
2022-11-28T00:31:30.657Z,3.10
2022-11-28T00:34:01.033Z,3.09
2022-11-28T00:36:32.837Z,3.10
2022-11-28T00:39:00.460Z,3.13
2022-11-28T00:41:41.167Z,3.14
2022-11-28T00:44:13.377Z,3.16
2022-11-28T00:46:41.787Z,3.17
2022-11-28T00:49:09.690Z,3.20
2022-11-28T00:51:37.852Z,3.21
2022-11-28T00:54:06.569Z,3.21
2022-11-28T00:56:37.956Z,3.23
2022-11-28T00:59:06.745Z,3.22
2022-11-28T01:01:41.694Z,3.21
2022-11-28T01:04:13.624Z,3.20
2022-11-28T01:06:49.222Z,3.20
2022-11-28T01:09:21.615Z,3.21
2022-11-28T01:11:53.069Z,3.23
2022-11-28T01:14:25.351Z,3.23
2022-11-28T01:16:53.319Z,3.23
2022-11-28T01:19:21.187Z,3.23
2022-11-28T01:21:49.718Z,3.23
2022-11-28T01:24:17.992Z,3.20
2022-11-28T01:26:45.929Z,3.19
2022-11-28T01:29:13.949Z,3.19
2022-11-28T01:31:41.816Z,3.21
2022-11-28T01:34:09.506Z,3.22
2022-11-28T01:36:37.245Z,3.21
2022-11-28T01:39:06.111Z,3.19
2022-11-28T01:41:33.977Z,3.18
2022-11-28T01:44:06.821Z,3.17
2022-11-28T01:46:35.721Z,3.15
2022-11-28T01:49:17.447Z,3.15
2022-11-28T01:51:53.545Z,3.14
2022-11-28T01:54:24.758Z,3.14
2022-11-28T01:57:00.425Z,3.14
2022-11-28T01:59:33.672Z,3.16
2022-11-28T02:02:05.013Z,3.16
2022-11-28T02:04:34.249Z,3.16
2022-11-28T02:07:02.027Z,3.17
2022-11-28T02:09:29.791Z,3.17
2022-11-28T02:12:15.172Z,3.19
2022-11-28T02:15:09.384Z,3.18
2022-11-28T02:18:14.311Z,3.16
2022-11-28T02:21:25.618Z,3.16
2022-11-28T02:24:07.682Z,3.12
2022-11-28T02:27:01.658Z,3.11
2022-11-28T02:29:47.016Z,3.11
2022-11-28T02:32:26.101Z,3.09
2022-11-28T02:35:37.418Z,3.07
2022-11-28T02:38:31.347Z,3.05
2022-11-28T02:41:04.502Z,3.04
2022-11-28T02:43:52.305Z,3.04
2022-11-28T02:46:46.909Z,3.04
2022-11-28T02:49:22.567Z,3.04
2022-11-28T02:51:58.023Z,3.01
2022-11-28T02:54:27.258Z,3.00
2022-11-28T02:56:55.372Z,2.94
2022-11-28T02:59:42.906Z,2.97
2022-11-28T03:02:22.451Z,2.96
2022-11-28T03:05:19.766Z,2.97
2022-11-28T03:08:19.062Z,2.85
2022-11-28T03:11:17.396Z,2.94
2022-11-28T03:13:59.785Z,2.95
2022-11-28T03:16:32.959Z,2.95
2022-11-28T03:19:23.794Z,2.95
2022-11-28T03:22:08.960Z,2.92
2022-11-28T03:24:54.459Z,2.91
2022-11-28T03:27:35.891Z,2.90
2022-11-28T03:30:19.088Z,2.89
2022-11-28T03:32:50.759Z,2.86
2022-11-28T03:35:23.581Z,2.84
2022-11-28T03:37:55.426Z,2.83
2022-11-28T03:40:28.277Z,2.83
2022-11-28T03:43:04.291Z,2.83
2022-11-28T03:45:45.393Z,2.84
2022-11-28T03:48:21.451Z,2.85
2022-11-28T03:50:59.565Z,2.86
2022-11-28T03:53:38.830Z,2.87
2022-11-28T03:56:23.116Z,2.91
2022-11-28T03:58:58.612Z,2.93
2022-11-28T04:01:37.270Z,2.94
2022-11-28T04:04:34.611Z,2.93
2022-11-28T04:07:10.251Z,2.93
2022-11-28T04:09:48.730Z,2.92
2022-11-28T04:12:36.129Z,2.91
2022-11-28T04:15:14.982Z,2.90
2022-11-28T04:17:50.925Z,2.86
2022-11-28T04:20:27.057Z,2.83
2022-11-28T04:23:00.310Z,2.81
2022-11-28T04:25:31.745Z,2.79
2022-11-28T04:28:04.976Z,2.81
2022-11-28T04:30:34.120Z,2.84
2022-11-28T04:33:06.113Z,2.84
2022-11-28T04:35:38.225Z,2.85
2022-11-28T04:38:09.363Z,2.87
2022-11-28T04:40:42.416Z,2.90
2022-11-28T04:43:15.769Z,2.91
2022-11-28T04:45:54.994Z,2.92
2022-11-28T04:48:23.790Z,2.92
2022-11-28T04:51:30.844Z,2.94
2022-11-28T04:54:29.700Z,2.94
2022-11-28T04:57:35.072Z,2.93
2022-11-28T05:00:13.264Z,2.92
2022-11-28T05:02:44.025Z,2.92
2022-11-28T05:05:19.715Z,2.92
2022-11-28T05:07:48.313Z,2.92
2022-11-28T05:10:16.612Z,2.93
2022-11-28T05:12:44.310Z,2.92
2022-11-28T05:15:12.357Z,2.90
2022-11-28T05:17:42.485Z,2.86
2022-11-28T05:20:10.470Z,2.85
2022-11-28T05:22:39.817Z,2.85
2022-11-28T05:25:08.516Z,2.86
2022-11-28T05:27:36.334Z,2.84
2022-11-28T05:30:06.567Z,2.83
2022-11-28T05:32:35.850Z,2.82
2022-11-28T05:35:17.068Z,2.82
2022-11-28T05:37:59.021Z,2.83
2022-11-28T05:40:28.291Z,2.83
2022-11-28T05:43:05.826Z,2.85
2022-11-28T05:45:41.232Z,2.87
2022-11-28T05:48:09.297Z,2.86
2022-11-28T05:50:40.785Z,2.85
2022-11-28T05:53:11.624Z,2.84
2022-11-28T05:55:40.668Z,2.84
2022-11-28T05:58:08.652Z,2.81
2022-11-28T06:00:37.319Z,2.80
2022-11-28T06:03:05.624Z,2.77
2022-11-28T06:05:42.632Z,2.76
2022-11-28T06:08:03.111Z,2.74
2022-11-28T06:10:31.137Z,2.72
2022-11-28T06:12:59.134Z,2.70
2022-11-28T06:15:27.101Z,2.70
2022-11-28T06:17:55.989Z,2.70
2022-11-28T06:20:24.475Z,2.72
2022-11-28T06:22:52.664Z,2.75
2022-11-28T06:25:20.669Z,2.76
2022-11-28T06:27:50.221Z,2.77
2022-11-28T06:30:18.118Z,2.79
2022-11-28T06:32:46.186Z,2.82
2022-11-28T06:35:14.281Z,2.87
2022-11-28T06:37:42.160Z,2.94
2022-11-28T06:40:10.647Z,3.02
2022-11-28T06:42:38.584Z,3.09
2022-11-28T06:45:08.803Z,3.18
2022-11-28T06:47:36.535Z,3.30
2022-11-28T06:50:05.593Z,3.42
2022-11-28T06:52:34.237Z,3.56
2022-11-28T06:55:04.968Z,3.70
2022-11-28T07:00:34.749Z,3.85
2022-11-28T07:03:02.736Z,3.89
2022-11-28T07:05:30.730Z,3.91
2022-11-28T07:07:58.792Z,3.93
2022-11-28T07:10:28.981Z,3.94
2022-11-28T07:13:04.947Z,3.94
2022-11-28T07:15:29.734Z,3.95
2022-11-28T07:17:57.730Z,3.98
2022-11-28T07:20:25.616Z,3.99
2022-11-28T07:22:53.482Z,4.00
2022-11-28T07:25:23.335Z,4.03
2022-11-28T07:27:51.511Z,4.04
2022-11-28T07:30:19.805Z,4.03
2022-11-28T07:32:47.429Z,4.05
2022-11-28T07:35:15.474Z,4.06
2022-11-28T07:37:43.425Z,4.04
2022-11-28T07:40:12.998Z,4.06
2022-11-28T07:42:40.874Z,4.10
2022-11-28T07:45:11.208Z,4.15
2022-11-28T07:47:39.087Z,4.24
2022-11-28T07:50:08.311Z,4.39
2022-11-28T07:52:36.277Z,4.54
2022-11-28T07:55:04.704Z,4.70
2022-11-28T07:57:32.992Z,4.87
2022-11-28T08:00:02.871Z,5.05
2022-11-28T08:02:33.893Z,5.15
2022-11-28T08:05:02.750Z,5.27
2022-11-28T08:07:30.735Z,5.39
2022-11-28T08:10:10.629Z,5.49
2022-11-28T08:12:48.733Z,5.61
2022-11-28T08:15:22.338Z,5.72
2022-11-28T08:17:52.882Z,5.78
2022-11-28T08:20:21.064Z,5.79
2022-11-28T08:22:51.393Z,5.83
2022-11-28T08:25:22.323Z,5.79
2022-11-28T08:27:50.472Z,5.74
2022-11-28T08:30:26.231Z,5.67
2022-11-28T08:33:01.470Z,5.66
2022-11-28T08:35:34.687Z,5.64
2022-11-28T08:38:04.655Z,5.55
2022-11-28T08:40:44.828Z,5.61
2022-11-28T08:43:31.851Z,5.61
2022-11-28T08:46:15.336Z,5.61
2022-11-28T08:52:05.196Z,5.61
2022-11-28T08:54:34.726Z,5.63
2022-11-28T08:57:02.615Z,5.64
2022-11-28T08:59:30.495Z,5.69
2022-11-28T09:01:58.401Z,5.82
2022-11-28T09:04:26.485Z,5.93
2022-11-28T09:06:54.566Z,6.10
2022-11-28T09:09:22.697Z,6.26
2022-11-28T09:11:51.665Z,6.42
2022-11-28T09:14:19.808Z,6.57
2022-11-28T09:16:47.817Z,6.67
2022-11-28T09:19:15.757Z,6.67
2022-11-28T09:21:43.592Z,6.75
2022-11-28T09:24:13.283Z,6.90
2022-11-28T09:26:41.959Z,7.12
2022-11-28T09:29:10.028Z,7.33
2022-11-28T09:31:38.706Z,7.50
2022-11-28T09:34:08.704Z,7.66
2022-11-28T09:36:36.582Z,7.71
2022-11-28T09:39:04.441Z,7.81
2022-11-28T09:41:46.339Z,7.99
2022-11-28T09:44:36.385Z,8.18
2022-11-28T09:47:09.613Z,8.38
2022-11-28T09:49:48.670Z,8.43
2022-11-28T09:53:12.658Z,8.41
2022-11-28T09:55:50.709Z,8.34
2022-11-28T09:58:40.540Z,8.53
2022-11-28T10:01:16.719Z,8.71
2022-11-28T10:04:04.958Z,8.87
2022-11-28T10:07:08.249Z,9.02
2022-11-28T10:10:04.397Z,9.21
2022-11-28T10:13:11.129Z,9.36
2022-11-28T10:16:00.523Z,9.48
2022-11-28T10:18:36.828Z,9.31
2022-11-28T10:21:36.790Z,9.34
2022-11-28T10:24:29.099Z,9.37
2022-11-28T10:27:06.095Z,9.23
2022-11-28T10:29:42.626Z,9.18
2022-11-28T10:32:21.263Z,9.23
2022-11-28T10:35:16.971Z,9.36
2022-11-28T10:37:44.879Z,9.48
2022-11-28T10:40:36.697Z,9.47
2022-11-28T10:43:46.084Z,9.42
2022-11-28T10:46:43.297Z,9.36
2022-11-28T10:49:47.375Z,9.16
2022-11-28T10:52:48.636Z,8.98
2022-11-28T10:55:42.378Z,8.76
2022-11-28T10:58:18.841Z,8.63
2022-11-28T11:00:50.764Z,8.54
2022-11-28T11:03:20.986Z,8.56
2022-11-28T11:05:48.506Z,8.68
2022-11-28T11:08:28.953Z,8.60
2022-11-28T11:11:18.993Z,8.56
2022-11-28T11:14:06.523Z,8.55
2022-11-28T11:16:50.698Z,8.55
2022-11-28T11:19:36.070Z,8.55
2022-11-28T11:22:25.543Z,8.49
2022-11-28T11:25:19.309Z,8.52
2022-11-28T11:27:52.165Z,8.64
2022-11-28T11:30:32.215Z,8.62
2022-11-28T11:33:04.044Z,8.57
2022-11-28T11:35:40.711Z,8.59
2022-11-28T11:38:37.484Z,8.58
2022-11-28T11:41:31.551Z,8.61
2022-11-28T11:44:17.428Z,8.51
2022-11-28T11:46:57.509Z,8.35
2022-11-28T11:49:50.983Z,8.13
2022-11-28T11:52:25.722Z,7.95
2022-11-28T11:55:11.035Z,7.71
2022-11-28T11:57:50.447Z,7.48
2022-11-28T12:00:27.196Z,7.31
2022-11-28T12:02:59.766Z,7.18
2022-11-28T12:05:52.389Z,7.02
2022-11-28T12:08:30.910Z,6.87
2022-11-28T12:11:24.820Z,6.78
2022-11-28T12:13:53.877Z,6.62
2022-11-28T12:16:42.547Z,6.53
2022-11-28T12:19:16.211Z,6.45
2022-11-28T12:22:27.961Z,6.38
2022-11-28T12:25:39.300Z,6.35
2022-11-28T12:28:32.654Z,6.29
2022-11-28T12:31:08.860Z,6.26
2022-11-28T12:33:54.528Z,6.25
2022-11-28T12:36:30.725Z,6.24
2022-11-28T12:39:43.942Z,6.29
2022-11-28T12:42:29.255Z,6.39
2022-11-28T12:45:17.445Z,6.50
2022-11-28T12:48:10.822Z,6.61
2022-11-28T12:51:11.140Z,6.72
2022-11-28T12:54:17.938Z,6.82
2022-11-28T12:57:07.861Z,6.91
2022-11-28T12:59:44.808Z,6.95
2022-11-28T13:02:47.161Z,6.99
2022-11-28T13:05:55.549Z,6.97
2022-11-28T13:08:50.168Z,6.93
2022-11-28T13:11:41.801Z,6.94
2022-11-28T13:14:24.073Z,6.89
2022-11-28T13:16:57.052Z,6.82
2022-11-28T13:19:43.533Z,6.77
2022-11-28T13:22:16.144Z,6.72
2022-11-28T13:25:00.034Z,6.66
2022-11-28T13:27:36.648Z,6.61
2022-11-28T13:30:16.136Z,6.54
2022-11-28T13:33:16.740Z,6.46
2022-11-28T13:35:46.632Z,6.39
2022-11-28T13:38:38.433Z,6.31
2022-11-28T13:41:28.442Z,6.26
2022-11-28T13:43:53.329Z,6.18
2022-11-28T13:46:23.595Z,6.10
2022-11-28T13:49:14.211Z,6.05
2022-11-28T13:51:37.222Z,5.98
2022-11-28T13:54:25.850Z,5.91
2022-11-28T13:57:14.623Z,5.85
2022-11-28T13:59:51.067Z,5.78
2022-11-28T14:02:27.818Z,5.69
2022-11-28T14:04:56.730Z,5.63
2022-11-28T14:07:30.190Z,5.58
2022-11-28T14:10:31.339Z,5.51
2022-11-28T14:13:42.839Z,5.45
2022-11-28T14:16:35.375Z,5.35
2022-11-28T14:19:39.540Z,5.26
2022-11-28T14:22:49.208Z,5.14
2022-11-28T14:25:24.394Z,5.10
2022-11-28T14:28:00.156Z,5.01
2022-11-28T14:30:34.584Z,4.94
2022-11-28T14:33:08.048Z,4.84
2022-11-28T14:36:05.401Z,4.76
2022-11-28T14:38:38.068Z,4.69
2022-11-28T14:41:12.536Z,4.58
2022-11-28T14:43:47.064Z,4.51
2022-11-28T14:46:36.494Z,4.45
2022-11-28T14:49:20.946Z,4.38
2022-11-28T14:52:16.012Z,4.30
2022-11-28T14:54:41.623Z,4.22
2022-11-28T14:57:24.653Z,4.13
2022-11-28T14:59:57.787Z,4.02
2022-11-28T15:03:00.355Z,3.96
2022-11-28T15:05:55.950Z,3.90
2022-11-28T15:08:57.014Z,3.83
2022-11-28T15:12:21.651Z,3.77
2022-11-28T15:14:54.324Z,3.65
2022-11-28T15:17:27.945Z,3.55
2022-11-28T15:19:59.053Z,3.49
2022-11-28T15:22:34.810Z,3.41
2022-11-28T15:25:03.150Z,3.35
2022-11-28T15:27:31.261Z,3.30
2022-11-28T15:30:01.079Z,3.23
2022-11-28T15:32:31.872Z,3.08
2022-11-28T15:35:10.907Z,3.13
2022-11-28T15:37:35.508Z,3.06
2022-11-28T16:48:18.583Z,1.44
2022-11-28T16:51:14.860Z,1.38
2022-11-28T16:56:49.626Z,1.27
2022-11-28T16:59:28.817Z,1.19
2022-11-28T17:01:59.555Z,1.13
2022-11-28T17:04:30.328Z,1.08
2022-11-28T17:07:02.183Z,1.02
2022-11-28T17:09:29.977Z,0.97
2022-11-28T17:12:07.631Z,0.92
2022-11-28T17:14:37.213Z,0.90
2022-11-28T17:17:16.576Z,0.86
2022-11-28T17:19:45.508Z,0.82
2022-11-28T17:22:17.750Z,0.80
2022-11-28T17:24:48.323Z,0.76
2022-11-28T17:27:16.950Z,0.76
2022-11-28T17:29:45.168Z,0.73
2022-11-28T17:32:14.252Z,0.71
2022-11-28T17:34:42.949Z,0.71
2022-11-28T17:37:10.746Z,0.67
2022-11-28T17:39:38.375Z,0.65
2022-11-28T17:42:06.481Z,0.64
2022-11-28T17:44:37.135Z,0.62
2022-11-28T17:47:05.845Z,0.61
2022-11-28T17:49:33.913Z,0.59
2022-11-28T17:52:01.969Z,0.59
2022-11-28T17:54:30.142Z,0.57
2022-11-28T17:56:57.954Z,0.54
2022-11-28T17:59:26.519Z,0.54
2022-11-28T18:01:54.515Z,0.52
2022-11-28T18:04:25.464Z,0.50
2022-11-28T18:06:53.233Z,0.48
2022-11-28T18:09:21.163Z,0.47
2022-11-28T18:11:52.976Z,0.46
2022-11-28T18:14:22.092Z,0.45
2022-11-28T18:16:50.331Z,0.42
2022-11-28T18:19:19.026Z,0.41
2022-11-28T18:21:47.406Z,0.39
2022-11-28T18:24:16.590Z,0.38
2022-11-28T18:26:44.649Z,0.37
2022-11-28T18:29:14.290Z,0.36
2022-11-28T18:31:42.749Z,0.36
2022-11-28T18:34:11.408Z,0.34
2022-11-28T18:36:40.753Z,0.34
2022-11-28T18:39:13.670Z,0.34
2022-11-28T18:41:42.695Z,0.32
2022-11-28T18:44:11.272Z,0.31
2022-11-28T18:46:39.664Z,0.32
2022-11-28T18:49:07.803Z,0.34
2022-11-28T18:51:35.465Z,0.34
2022-11-28T18:54:05.812Z,0.34
2022-11-28T18:56:35.439Z,0.35
2022-11-28T18:59:03.865Z,0.38
2022-11-28T19:01:34.517Z,0.39
2022-11-28T19:04:10.583Z,0.41
2022-11-28T19:06:58.431Z,0.44
2022-11-28T19:09:26.360Z,0.47
2022-11-28T19:11:54.991Z,0.49
2022-11-28T19:14:27.255Z,0.51
2022-11-28T19:16:56.274Z,0.52
2022-11-28T19:19:24.663Z,0.52
2022-11-28T19:21:54.393Z,0.51
2022-11-28T19:24:22.293Z,0.52
2022-11-28T19:26:50.558Z,0.52
2022-11-28T19:29:18.631Z,0.54
2022-11-28T19:31:46.484Z,0.51
2022-11-28T19:34:17.935Z,0.50
2022-11-28T19:36:50.462Z,0.47
2022-11-28T19:39:22.605Z,0.44
2022-11-28T19:41:53.504Z,0.40
2022-11-28T19:44:26.480Z,0.38
2022-11-28T19:46:55.906Z,0.37
2022-11-28T19:49:28.777Z,0.35
2022-11-28T19:51:56.516Z,0.35
2022-11-28T19:54:24.975Z,0.34
2022-11-28T19:56:54.387Z,0.34
2022-11-28T19:59:22.986Z,0.32
2022-11-28T20:01:52.294Z,0.33
2022-11-28T20:04:20.411Z,0.34
2022-11-28T20:06:50.048Z,0.36
2022-11-28T20:09:18.042Z,0.37
2022-11-28T20:11:47.789Z,0.39
2022-11-28T20:14:19.099Z,0.42
2022-11-28T20:16:47.637Z,0.43
2022-11-28T20:19:18.511Z,0.48
2022-11-28T20:21:49.334Z,0.50
2022-11-28T20:24:17.019Z,0.54
2022-11-28T20:26:46.054Z,0.59
2022-11-28T20:29:17.159Z,0.65
2022-11-28T20:31:47.478Z,0.69
2022-11-28T20:34:18.916Z,0.76
2022-11-28T20:36:52.140Z,0.81
2022-11-28T20:39:20.446Z,0.87
2022-11-28T20:41:48.291Z,0.92
2022-11-28T20:44:17.269Z,0.96
2022-11-28T20:46:45.884Z,1.01
2022-11-28T20:49:14.886Z,1.05
2022-11-28T20:51:42.787Z,1.09
2022-11-28T20:54:12.718Z,1.13
2022-11-28T20:57:12.719Z,1.17
2022-11-28T20:59:16.556Z,1.21
2022-11-28T21:01:44.647Z,1.24
2022-11-28T21:04:15.306Z,1.27
2022-11-28T21:06:44.134Z,1.29
2022-11-28T21:09:12.350Z,1.32
2022-11-28T21:14:09.551Z,1.36
2022-11-28T21:16:37.302Z,1.38
2022-11-28T21:19:08.464Z,1.39
2022-11-28T21:21:39.285Z,1.41
2022-11-28T21:24:11.719Z,1.42
2022-11-28T21:26:45.359Z,1.40
2022-11-28T21:29:12.242Z,1.42
2022-11-28T21:31:43.187Z,1.42
2022-11-28T21:34:15.928Z,1.38
2022-11-28T21:36:46.088Z,1.38
2022-11-28T21:39:18.180Z,1.37
2022-11-28T21:41:45.970Z,1.36
2022-11-28T21:44:14.133Z,1.35
2022-11-28T21:46:41.966Z,1.34
2022-11-28T21:49:09.937Z,1.32
2022-11-28T21:51:39.793Z,1.33
2022-11-28T21:54:10.485Z,1.33
2022-11-28T21:56:38.348Z,1.34
2022-11-28T21:59:06.432Z,1.35
2022-11-28T22:01:34.351Z,1.35
2022-11-28T22:04:03.354Z,1.34
2022-11-28T22:06:32.592Z,1.35
2022-11-28T22:09:08.794Z,1.35
2022-11-28T22:11:32.588Z,1.37
2022-11-28T22:14:00.013Z,1.37
2022-11-28T22:16:29.401Z,1.38
2022-11-28T22:18:59.779Z,1.39
2022-11-28T22:23:58.547Z,1.37
2022-11-28T22:26:26.140Z,1.36
2022-11-28T22:28:54.206Z,1.37
2022-11-28T22:31:23.725Z,1.38
2022-11-28T22:33:51.981Z,1.36
2022-11-28T22:36:22.360Z,1.37
2022-11-28T22:38:56.461Z,1.36
2022-11-28T22:41:29.387Z,1.35
2022-11-28T22:43:59.687Z,1.34
2022-11-28T22:46:28.475Z,1.32
2022-11-28T22:48:57.968Z,1.26
2022-11-28T22:51:27.916Z,1.24
2022-11-28T22:53:58.769Z,1.21
2022-11-28T22:56:28.944Z,1.16
2022-11-28T22:58:58.923Z,1.13
2022-11-28T23:01:30.073Z,1.09
2022-11-28T23:03:58.326Z,1.06
2022-11-28T23:06:30.574Z,1.02
2022-11-28T23:09:00.826Z,0.99
2022-11-28T23:11:32.956Z,0.94
2022-11-28T23:14:02.037Z,0.91
2022-11-28T23:16:37.477Z,0.86
2022-11-28T23:19:12.591Z,0.81
2022-11-28T23:21:43.755Z,0.77
2022-11-28T23:24:18.981Z,0.70
2022-11-28T23:26:47.760Z,0.63
2022-11-28T23:29:16.141Z,0.55
2022-11-28T23:31:46.420Z,0.49
2022-11-28T23:34:15.062Z,0.45
2022-11-28T23:36:46.593Z,0.39
2022-11-28T23:39:22.324Z,0.36
2022-11-28T23:41:50.527Z,0.33
2022-11-28T23:44:21.176Z,0.28
2022-11-28T23:46:50.843Z,0.23
2022-11-28T23:49:18.647Z,0.20
2022-11-28T23:51:46.330Z,0.17
2022-11-28T23:54:14.272Z,0.16
2022-11-28T23:56:43.451Z,0.15
2022-11-28T23:59:12.469Z,0.13
